Terminal Aerodrome Forecast
Issued by NWS Huntsville, AL

Home | Current Version | Previous Version | Text Only | Print | Product List | Glossary On
Versions: 1 2 3 4 5 6 7 8 9 10 11 12 13 14 15 16 17 18
000
FTUS44 KHUN 261720
TAFMSL
TAF
KMSL 261720Z 2618/2718 09010KT P6SM VCSH SCT010 BKN020
      TEMPO 2618/2621 5SM -SHRA BR
     FM262200 33007KT P6SM BKN010
     FM271400 33010KT P6SM SCT010 BKN030=

USA.gov is the U.S. government's official web portal to all federal, state and local government web resources and services.